Time;durP1;ratioP1;P1;durP2;ratioP2;P2;SDS_P1;SDS_P2;PMS_P1;PMS_P2;Temp;Humidity;BMP_temperature;BMP_pressure;BME280_temperature;BME280_humidity;BME280_pressure;Samples;Min_cycle;Max_cycle;Signal;HPM_P1;HPM_P2
2023/01/28 00:00:35;;;;;;;30.13;13.77;;;;;;;1.25;100.00;100488.25;4960945;28;20047;-86
2023/01/28 00:03:00;;;;;;;26.17;12.88;;;;;;;1.45;100.00;100486.91;4959955;28;20079;-88
2023/01/28 00:05:28;;;;;;;32.15;14.38;;;;;;;1.29;100.00;100492.34;4940029;29;20050;-87
2023/01/28 00:07:54;;;;;;;32.17;14.80;;;;;;;1.42;100.00;100487.94;4955635;29;20032;-86
2023/01/28 00:10:19;;;;;;;31.27;13.57;;;;;;;1.45;100.00;100490.34;4954037;29;20071;-84
2023/01/28 00:12:49;;;;;;;29.15;13.90;;;;;;;1.34;100.00;100492.00;4937498;29;20059;-84
2023/01/28 00:15:15;;;;;;;31.42;14.75;;;;;;;1.20;100.00;100490.31;4953852;29;20032;-86
2023/01/28 00:17:40;;;;;;;24.63;12.85;;;;;;;1.22;100.00;100491.06;4939463;29;20042;-85
2023/01/28 00:20:07;;;;;;;29.30;14.02;;;;;;;1.07;100.00;100486.88;4941396;29;20032;-86
2023/01/28 00:22:32;;;;;;;27.70;12.85;;;;;;;1.18;100.00;100489.59;4943391;29;20039;-87
2023/01/28 00:24:58;;;;;;;26.70;13.50;;;;;;;1.43;100.00;100486.16;4945593;29;20047;-86
2023/01/28 00:27:34;;;;;;;27.00;13.40;;;;;;;1.58;100.00;100492.09;4946208;29;20042;-82
2023/01/28 00:30:00;;;;;;;26.40;12.85;;;;;;;1.64;100.00;100499.50;4930670;29;20044;-84
2023/01/28 00:32:26;;;;;;;28.95;14.07;;;;;;;1.43;100.00;100494.81;4945165;29;20071;-84
2023/01/28 00:34:52;;;;;;;32.55;14.43;;;;;;;1.23;100.00;100494.50;4932967;29;20039;-88
2023/01/28 00:37:17;;;;;;;29.70;12.85;;;;;;;1.12;100.00;100494.41;4946466;29;20046;-84
2023/01/28 00:39:43;;;;;;;24.38;12.80;;;;;;;1.22;100.00;100498.91;4949018;29;20130;-83
2023/01/28 00:42:11;;;;;;;28.17;12.88;;;;;;;1.28;100.00;100495.88;4950917;29;20115;-85
2023/01/28 00:44:41;;;;;;;30.05;14.55;;;;;;;1.39;100.00;100498.56;4954671;29;20043;-84
2023/01/28 00:47:07;;;;;;;29.63;12.68;;;;;;;1.56;100.00;100495.66;4954749;29;20027;-85
2023/01/28 00:49:32;;;;;;;26.02;12.52;;;;;;;1.46;100.00;100499.81;4954989;29;20106;-84
2023/01/28 00:51:58;;;;;;;27.70;13.13;;;;;;;1.44;100.00;100511.31;4937317;29;20038;-84
2023/01/28 00:54:37;;;;;;;30.50;15.18;;;;;;;1.41;100.00;100501.09;4931162;29;20063;-84
2023/01/28 00:57:06;;;;;;;30.23;14.85;;;;;;;1.43;100.00;100504.41;4933721;29;20040;-86
2023/01/28 00:59:37;;;;;;;37.25;16.42;;;;;;;1.35;100.00;100514.56;4950647;29;20091;-86
2023/01/28 01:02:11;;;;;;;35.97;16.58;;;;;;;1.37;100.00;100507.44;4927458;29;20036;-85
2023/01/28 01:04:37;;;;;;;33.58;15.93;;;;;;;1.36;100.00;100514.44;4933891;29;20043;-84
2023/01/28 01:07:08;;;;;;;31.67;16.08;;;;;;;1.61;100.00;100503.19;4924048;29;20028;-86
2023/01/28 01:09:34;;;;;;;31.85;15.90;;;;;;;1.66;100.00;100508.09;4920795;29;20044;-86
2023/01/28 01:12:00;;;;;;;32.42;15.25;;;;;;;1.71;100.00;100513.81;4937299;29;20035;-86
2023/01/28 01:14:25;;;;;;;31.05;15.35;;;;;;;1.77;100.00;100513.38;4936698;29;20028;-86
2023/01/28 01:16:51;;;;;;;32.70;15.57;;;;;;;1.95;100.00;100509.50;4920488;29;20464;-87
2023/01/28 01:19:17;;;;;;;37.70;16.30;;;;;;;1.81;100.00;100514.84;4937713;29;20396;-88
2023/01/28 01:21:49;;;;;;;37.28;17.60;;;;;;;1.66;100.00;100521.16;4919988;29;20124;-85
2023/01/28 01:24:15;;;;;;;32.38;16.00;;;;;;;1.83;100.00;100521.63;4936322;29;20039;-90
2023/01/28 01:26:43;;;;;;;30.33;15.30;;;;;;;2.14;100.00;100525.56;4920268;29;20445;-85
2023/01/28 01:29:09;;;;;;;30.52;15.00;;;;;;;2.16;100.00;100528.06;4937956;29;20115;-85
2023/01/28 01:31:35;;;;;;;38.97;17.23;;;;;;;1.94;100.00;100528.75;4937318;29;20062;-86
2023/01/28 01:34:00;;;;;;;35.50;15.60;;;;;;;1.91;100.00;100531.56;4938858;29;20040;-85
2023/01/28 01:36:26;;;;;;;35.10;16.08;;;;;;;1.93;100.00;100529.66;4936528;29;20091;-85
2023/01/28 01:38:53;;;;;;;31.42;16.27;;;;;;;1.91;100.00;100536.78;4936922;29;20040;-85
2023/01/28 01:41:24;;;;;;;32.35;16.05;;;;;;;2.08;100.00;100528.63;4936485;29;20441;-84
2023/01/28 01:43:58;;;;;;;34.55;16.00;;;;;;;2.23;100.00;100534.53;4935874;29;20039;-89
2023/01/28 01:46:44;;;;;;;35.90;16.00;;;;;;;2.26;100.00;100540.38;4936589;29;20039;-84
2023/01/28 01:49:23;;;;;;;34.42;16.27;;;;;;;2.14;100.00;100538.63;4936711;29;20040;-87
2023/01/28 01:52:15;;;;;;;30.60;15.82;;;;;;;2.19;100.00;100544.34;4919670;29;20048;-85
2023/01/28 01:54:47;;;;;;;29.63;15.60;;;;;;;2.14;100.00;100538.63;4920456;29;20031;-91
2023/01/28 01:57:16;;;;;;;32.95;15.73;;;;;;;2.06;100.00;100547.00;4937139;29;20102;-88
2023/01/28 01:59:42;;;;;;;30.80;16.05;;;;;;;2.27;100.00;100552.50;4939909;29;20036;-89
2023/01/28 02:02:10;;;;;;;39.40;17.40;;;;;;;2.22;100.00;100551.97;4920931;29;20043;-86
2023/01/28 02:04:40;;;;;;;31.50;16.92;;;;;;;2.19;100.00;100554.81;4921902;29;20036;-91
2023/01/28 02:07:08;;;;;;;33.47;16.52;;;;;;;2.33;100.00;100549.44;4936585;29;20059;-85
2023/01/28 02:09:36;;;;;;;33.00;16.27;;;;;;;2.36;100.00;100551.00;4937360;29;20094;-83
2023/01/28 02:12:14;;;;;;;48.60;15.98;;;;;;;2.22;100.00;100548.56;4937033;29;20092;-85
2023/01/28 02:14:46;;;;;;;37.13;17.33;;;;;;;2.19;100.00;100546.97;4919953;29;20031;-85
2023/01/28 02:17:14;;;;;;;33.63;16.45;;;;;;;2.08;100.00;100550.38;4936627;29;20040;-89
2023/01/28 02:19:46;;;;;;;32.53;16.30;;;;;;;2.13;100.00;100551.78;4937531;29;20078;-90
2023/01/28 02:22:41;;;;;;;33.75;16.35;;;;;;;2.24;100.00;100547.50;4935977;29;20035;-90
2023/01/28 02:25:52;;;;;;;33.85;16.92;;;;;;;2.26;100.00;100553.44;4909159;29;20461;-87
2023/01/28 02:29:10;;;;;;;31.70;15.90;;;;;;;2.18;100.00;100540.09;4935582;29;20099;-86
2023/01/28 02:31:57;;;;;;;32.35;16.02;;;;;;;2.28;100.00;100530.66;4869778;29;20527;-88
2023/01/28 02:34:39;;;;;;;32.60;15.85;;;;;;;2.27;100.00;100539.44;4937548;29;20035;-87
2023/01/28 02:37:11;;;;;;;30.13;15.90;;;;;;;2.48;100.00;100532.69;4920609;29;20075;-85
2023/01/28 02:39:43;;;;;;;25.97;12.90;;;;;;;2.26;100.00;100542.97;4950802;29;20044;-86
2023/01/28 02:42:15;;;;;;;34.75;16.63;;;;;;;2.33;100.00;100538.16;4921038;29;20051;-88
2023/01/28 02:44:41;;;;;;;33.80;16.65;;;;;;;2.25;100.00;100545.72;4919813;29;20122;-87
2023/01/28 02:50:02;;;;;;;38.22;18.73;;;;;;;1.68;100.00;100551.44;4919876;29;20051;-88
2023/01/28 02:55:58;;;;;;;37.22;17.73;;;;;;;1.89;100.00;100555.19;4940134;29;20567;-90
2023/01/28 02:58:39;;;;;;;35.20;17.27;;;;;;;2.04;100.00;100558.50;4940580;29;20490;-87
2023/01/28 03:01:18;;;;;;;36.45;18.10;;;;;;;2.21;100.00;100559.94;4940431;29;20035;-86
2023/01/28 03:04:05;;;;;;;35.50;17.08;;;;;;;2.22;100.00;100562.44;4940588;29;20040;-87
2023/01/28 03:06:38;;;;;;;33.08;17.13;;;;;;;2.43;100.00;100558.31;4924171;29;20044;-86
2023/01/28 03:09:27;;;;;;;33.08;16.45;;;;;;;2.59;100.00;100558.03;4947502;29;20119;-86
2023/01/28 03:39:05;;;;;;;44.92;17.60;;;;;;;2.24;100.00;100570.19;4945881;28;20078;-85
2023/01/28 03:41:30;;;;;;;35.53;17.17;;;;;;;2.18;100.00;100576.69;4961627;28;20043;-86
2023/01/28 03:46:43;;;;;;;31.30;16.35;;;;;;;2.27;100.00;100570.81;4945663;29;20050;-84
2023/01/28 03:49:09;;;;;;;36.75;17.45;;;;;;;2.22;100.00;100575.50;4944939;29;20028;-87
2023/01/28 03:51:35;;;;;;;36.92;18.40;;;;;;;1.91;100.00;100576.00;4960319;28;20039;-87
2023/01/28 03:54:01;;;;;;;42.08;19.92;;;;;;;1.70;100.00;100574.84;4922129;29;20074;-87
2023/01/28 03:56:27;;;;;;;36.10;18.20;;;;;;;1.91;100.00;100576.00;4922139;29;20048;-86
2023/01/28 03:58:55;;;;;;;33.42;17.15;;;;;;;2.05;100.00;100578.50;4921798;29;20420;-92
2023/01/28 04:01:22;;;;;;;39.97;17.67;;;;;;;1.91;100.00;100589.06;4938530;29;20047;-91
2023/01/28 04:03:48;;;;;;;33.35;16.73;;;;;;;1.74;100.00;100578.91;4921277;29;20120;-88
2023/01/28 04:06:17;;;;;;;37.58;18.35;;;;;;;1.85;100.00;100584.25;4907215;29;20043;-86
2023/01/28 04:09:04;;;;;;;37.60;18.90;;;;;;;1.98;100.00;100583.31;4940109;29;20107;-89
2023/01/28 04:11:49;;;;;;;33.95;17.17;;;;;;;2.19;100.00;100586.19;4938741;29;20404;-87
2023/01/28 04:14:21;;;;;;;35.05;16.70;;;;;;;2.37;100.00;100586.69;4939576;29;20043;-85
2023/01/28 04:16:57;;;;;;;35.78;18.08;;;;;;;2.23;100.00;100585.03;4942535;29;20485;-85
2023/01/28 04:19:25;;;;;;;39.45;19.08;;;;;;;2.13;100.00;100589.22;4923102;29;20044;-90
2023/01/28 04:21:55;;;;;;;39.00;17.73;;;;;;;2.28;100.00;100588.19;4922126;29;20420;-85
2023/01/28 04:24:22;;;;;;;37.90;18.33;;;;;;;2.44;100.00;100587.94;4938043;29;20036;-89
2023/01/28 04:26:48;;;;;;;37.03;16.98;;;;;;;2.27;100.00;100593.50;4922096;29;20139;-86
2023/01/28 04:29:14;;;;;;;34.70;18.13;;;;;;;2.31;100.00;100593.19;4922080;29;20023;-87
2023/01/28 04:31:40;;;;;;;36.22;18.05;;;;;;;2.15;100.00;100586.53;4922324;29;20039;-86
2023/01/28 04:34:16;;;;;;;35.03;16.90;;;;;;;1.70;100.00;100588.75;4939844;29;20036;-90
2023/01/28 04:37:02;;;;;;;34.75;18.02;;;;;;;1.48;100.00;100588.53;4940210;29;20058;-87
2023/01/28 04:39:45;;;;;;;39.83;19.38;;;;;;;1.27;100.00;100587.31;4925314;29;20454;-87
2023/01/28 04:42:38;;;;;;;36.28;18.65;;;;;;;1.11;100.00;100587.50;4910380;29;20083;-89
2023/01/28 04:45:17;;;;;;;38.38;18.95;;;;;;;1.22;100.00;100586.81;4922109;29;20126;-84
2023/01/28 04:48:00;;;;;;;40.13;18.15;;;;;;;1.13;100.00;100597.88;4939711;29;20405;-88
2023/01/28 04:50:36;;;;;;;46.47;19.77;;;;;;;1.00;100.00;100600.41;4939546;29;20050;-90
2023/01/28 04:53:25;;;;;;;44.13;19.25;;;;;;;1.06;100.00;100589.59;4937141;29;20051;-88
2023/01/28 04:55:56;;;;;;;44.85;20.88;;;;;;;1.04;100.00;100591.44;4892838;29;20051;-87
2023/01/28 04:58:22;;;;;;;49.15;21.45;;;;;;;1.09;100.00;100593.78;4922847;29;20035;-88
2023/01/28 05:00:58;;;;;;;47.38;20.20;;;;;;;1.13;100.00;100590.84;4924291;29;20036;-88
2023/01/28 05:03:24;;;;;;;43.55;20.60;;;;;;;1.02;100.00;100593.34;4926199;29;20046;-84
2023/01/28 05:05:51;;;;;;;41.05;20.65;;;;;;;0.98;100.00;100597.91;4929418;29;20035;-85
2023/01/28 05:08:26;;;;;;;41.33;19.70;;;;;;;1.14;100.00;100595.13;4931520;29;20488;-85
2023/01/28 05:10:52;;;;;;;39.08;20.13;;;;;;;1.14;100.00;100599.50;4933003;29;20401;-85
2023/01/28 05:13:18;;;;;;;49.55;20.60;;;;;;;1.26;100.00;100596.94;4929112;29;20032;-85
2023/01/28 05:15:50;;;;;;;38.97;19.63;;;;;;;1.49;100.00;100598.03;4936978;29;20071;-84
2023/01/28 05:18:15;;;;;;;38.67;19.67;;;;;;;1.59;100.00;100593.03;4938738;29;20043;-85
2023/01/28 05:20:47;;;;;;;40.17;18.65;;;;;;;1.64;100.00;100598.78;4920737;29;20157;-86
2023/01/28 05:23:13;;;;;;;37.22;18.38;;;;;;;1.64;100.00;100610.06;4932390;29;20028;-84
2023/01/28 05:25:48;;;;;;;39.53;17.73;;;;;;;1.71;100.00;100605.25;4930280;29;20039;-81
2023/01/28 05:28:14;;;;;;;33.72;17.48;;;;;;;1.69;100.00;100604.53;4922399;29;20028;-83
2023/01/28 05:30:40;;;;;;;34.00;17.27;;;;;;;1.77;100.00;100607.44;4920107;29;20043;-82
2023/01/28 05:33:06;;;;;;;36.00;17.48;;;;;;;1.68;100.00;100618.53;4937080;29;20213;-83
2023/01/28 05:35:31;;;;;;;39.17;18.23;;;;;;;1.51;100.00;100611.81;4919760;29;20099;-81
2023/01/28 05:37:57;;;;;;;34.58;17.92;;;;;;;1.61;100.00;100618.09;4936963;29;20039;-83
2023/01/28 05:40:22;;;;;;;34.70;17.55;;;;;;;1.72;100.00;100614.78;4919978;29;20100;-84
2023/01/28 05:42:49;;;;;;;34.33;17.05;;;;;;;1.88;100.00;100610.19;4919556;29;20030;-82
2023/01/28 05:45:24;;;;;;;34.35;16.88;;;;;;;1.70;100.00;100619.25;4919735;29;20032;-84
2023/01/28 05:48:02;;;;;;;34.60;17.23;;;;;;;1.86;100.00;100622.50;4919810;29;20035;-83
2023/01/28 05:50:50;;;;;;;37.50;18.02;;;;;;;1.81;100.00;100628.06;4940608;29;20063;-82
2023/01/28 05:53:19;;;;;;;34.70;17.10;;;;;;;1.71;100.00;100640.06;4922424;29;20474;-85
2023/01/28 05:55:50;;;;;;;34.58;18.13;;;;;;;1.51;100.00;100651.84;4908138;29;20043;-82
2023/01/28 05:58:16;;;;;;;34.10;17.35;;;;;;;1.32;100.00;100654.00;4920735;29;20043;-83
2023/01/28 06:00:42;;;;;;;37.63;17.90;;;;;;;1.29;100.00;100654.19;4918829;29;20118;-85
2023/01/28 06:03:07;;;;;;;41.22;18.50;;;;;;;1.22;100.00;100652.06;4919255;29;20039;-87
2023/01/28 06:05:34;;;;;;;37.25;19.27;;;;;;;1.25;100.00;100652.72;4922578;29;20059;-85
2023/01/28 06:08:00;;;;;;;44.00;18.60;;;;;;;1.34;100.00;100662.53;4938719;29;20501;-88
2023/01/28 06:10:25;;;;;;;45.00;19.38;;;;;;;1.15;100.00;100663.84;4921954;29;20474;-87
2023/01/28 06:12:52;;;;;;;37.13;18.50;;;;;;;1.02;100.00;100663.78;4924050;29;20068;-85
2023/01/28 06:15:33;;;;;;;40.28;19.63;;;;;;;0.93;100.00;100667.81;4919463;29;20524;-85
2023/01/28 06:18:11;;;;;;;41.83;19.33;;;;;;;0.87;100.00;100676.03;4919542;29;20051;-83
2023/01/28 06:20:37;;;;;;;45.03;19.02;;;;;;;0.85;100.00;100675.31;4920695;29;20044;-86
2023/01/28 06:23:03;;;;;;;40.22;18.10;;;;;;;0.96;100.00;100672.81;4919766;29;20130;-85
2023/01/28 06:25:29;;;;;;;40.60;20.05;;;;;;;1.05;100.00;100679.25;4919101;29;20032;-84
2023/01/28 06:27:58;;;;;;;41.25;19.35;;;;;;;1.03;100.00;100678.50;4923243;29;20032;-86
2023/01/28 06:30:24;;;;;;;41.92;19.83;;;;;;;0.94;100.00;100679.09;4941259;29;20058;-88
2023/01/28 06:32:54;;;;;;;39.13;19.00;;;;;;;1.01;100.00;100678.59;4941029;29;20040;-86
2023/01/28 06:35:20;;;;;;;39.03;19.90;;;;;;;0.82;100.00;100685.09;4924932;29;20032;-88
2023/01/28 06:37:46;;;;;;;36.60;18.67;;;;;;;0.93;100.00;100687.84;4942371;29;20412;-89
2023/01/28 06:40:11;;;;;;;40.83;20.23;;;;;;;0.67;100.00;100686.88;4928453;29;20063;-88
2023/01/28 06:42:37;;;;;;;46.83;21.50;;;;;;;0.70;100.00;100685.84;4928758;29;20044;-87
2023/01/28 06:45:03;;;;;;;65.18;23.33;;;;;;;0.58;100.00;100697.03;4945535;29;20398;-83
2023/01/28 06:47:28;;;;;;;47.10;21.52;;;;;;;0.48;100.00;100691.56;4945077;29;20038;-88
2023/01/28 06:49:57;;;;;;;47.08;21.30;;;;;;;0.42;100.00;100698.00;4943807;29;20171;-85
2023/01/28 06:52:22;;;;;;;55.40;21.70;;;;;;;0.57;100.00;100705.78;4943080;29;20107;-86
2023/01/28 06:54:49;;;;;;;46.20;22.00;;;;;;;0.70;100.00;100696.25;4945311;29;20040;-88
2023/01/28 06:57:14;;;;;;;46.88;22.10;;;;;;;0.78;100.00;100704.47;4941913;29;20508;-88
2023/01/28 06:59:40;;;;;;;49.78;21.25;;;;;;;0.93;100.00;100699.13;4941446;29;20032;-83
2023/01/28 07:02:10;;;;;;;44.75;20.00;;;;;;;0.79;100.00;100706.16;4925396;29;20050;-85
2023/01/28 07:04:36;;;;;;;43.05;21.50;;;;;;;0.70;100.00;100701.47;4942630;29;20047;-88
2023/01/28 07:07:02;;;;;;;41.13;21.33;;;;;;;0.79;100.00;100706.16;4923900;29;20125;-83
2023/01/28 07:09:27;;;;;;;44.88;20.85;;;;;;;1.02;100.00;100713.38;4942768;29;20098;-87
2023/01/28 07:11:53;;;;;;;46.10;20.25;;;;;;;1.19;100.00;100710.53;4944160;29;20470;-88
2023/01/28 07:14:18;;;;;;;46.15;20.38;;;;;;;1.76;100.00;100718.94;4943012;29;20051;-87
2023/01/28 07:16:44;;;;;;;41.95;20.05;;;;;;;2.23;100.00;100722.78;4941572;29;20070;-85
2023/01/28 07:19:09;;;;;;;46.65;21.15;;;;;;;2.71;100.00;100742.13;4919666;29;20118;-85
2023/01/28 07:21:35;;;;;;;50.83;20.55;;;;;;;2.62;100.00;100740.16;4936240;29;20457;-83
2023/01/28 07:24:00;;;;;;;41.65;19.38;;;;;;;2.99;100.00;100739.22;4932909;29;20032;-84
2023/01/28 07:26:29;;;;;;;38.72;18.52;;;;;;;3.58;100.00;100746.25;4922162;29;20059;-87
2023/01/28 07:28:54;;;;;;;38.00;17.98;;;;;;;3.41;100.00;100748.44;4924652;29;20055;-82
2023/01/28 07:31:20;;;;;;;41.25;19.40;;;;;;;3.34;100.00;100745.41;4911557;29;20040;-84
2023/01/28 07:33:45;;;;;;;34.08;17.20;;;;;;;3.71;100.00;100750.59;4921910;29;20035;-84
2023/01/28 07:36:11;;;;;;;33.70;16.67;;;;;;;4.67;100.00;100764.16;4922925;29;20040;-84
2023/01/28 07:38:36;;;;;;;31.35;15.75;;;;;;;4.99;100.00;100768.72;4921983;29;20461;-87
2023/01/28 07:41:05;;;;;;;30.50;15.88;;;;;;;5.85;100.00;100766.13;4921030;29;20431;-85
2023/01/28 07:43:30;;;;;;;32.83;15.65;;;;;;;6.62;100.00;100765.72;4922143;29;20036;-85
2023/01/28 07:46:00;;;;;;;34.85;17.88;;;;;;;6.35;98.43;100768.06;4923201;29;20036;-84
2023/01/28 07:48:27;;;;;;;32.40;16.40;;;;;;;6.46;98.24;100767.16;4916307;29;20099;-84
2023/01/28 07:51:07;;;;;;;36.35;16.25;;;;;;;5.79;100.00;100771.88;4924700;29;20212;-81
2023/01/28 07:53:35;;;;;;;28.67;15.30;;;;;;;6.09;100.00;100782.56;4921107;29;20040;-83
2023/01/28 07:56:01;;;;;;;30.58;14.05;;;;;;;6.25;96.46;100796.09;4904016;29;20047;-83
2023/01/28 07:58:27;;;;;;;27.42;15.38;;;;;;;5.57;100.00;100799.91;4904954;29;20048;-86
2023/01/28 08:00:57;;;;;;;32.92;15.63;;;;;;;5.26;100.00;100803.34;4924089;29;20033;-84
2023/01/28 08:03:23;;;;;;;30.95;16.23;;;;;;;5.40;100.00;100803.06;4938959;29;20098;-86
2023/01/28 08:05:52;;;;;;;32.72;16.88;;;;;;;5.66;100.00;100806.25;4942822;29;20024;-87
2023/01/28 08:08:20;;;;;;;35.20;16.42;;;;;;;5.53;100.00;100803.78;4946193;29;20063;-90
2023/01/28 08:10:49;;;;;;;33.77;16.60;;;;;;;5.38;100.00;100807.59;4916834;29;20044;-87
2023/01/28 08:13:16;;;;;;;33.05;17.58;;;;;;;5.28;100.00;100806.66;4908788;29;20545;-88
2023/01/28 08:15:42;;;;;;;32.08;17.70;;;;;;;5.15;100.00;100812.06;4924349;29;20119;-91
2023/01/28 08:18:11;;;;;;;32.33;17.77;;;;;;;5.06;100.00;100806.69;4906765;29;20067;-88
2023/01/28 08:20:37;;;;;;;38.05;19.88;;;;;;;4.93;100.00;100808.59;4923789;29;20040;-89
2023/01/28 08:23:11;;;;;;;34.08;19.20;;;;;;;4.34;100.00;100813.16;4904911;29;20545;-88
2023/01/28 08:25:36;;;;;;;41.08;20.25;;;;;;;4.36;100.00;100806.00;4921073;29;20107;-90
2023/01/28 08:28:03;;;;;;;47.05;21.25;;;;;;;4.24;100.00;100812.19;4921061;29;20462;-86
2023/01/28 08:30:29;;;;;;;44.88;20.50;;;;;;;4.08;100.00;100809.84;4931369;29;20036;-86
2023/01/28 08:32:57;;;;;;;34.42;18.90;;;;;;;4.25;100.00;100825.16;4942292;29;20090;-87
2023/01/28 08:35:23;;;;;;;37.38;19.58;;;;;;;4.24;100.00;100825.31;4904920;29;20055;-86
2023/01/28 08:37:49;;;;;;;41.83;20.15;;;;;;;4.33;100.00;100828.06;4921469;29;20051;-87
2023/01/28 08:40:15;;;;;;;49.03;20.67;;;;;;;4.66;100.00;100832.56;4941527;29;20039;-85
2023/01/28 08:42:46;;;;;;;41.70;21.42;;;;;;;4.22;100.00;100846.38;4925861;29;20040;-87
2023/01/28 08:45:12;;;;;;;36.47;20.55;;;;;;;4.39;100.00;100838.09;4918798;29;20505;-85
2023/01/28 08:47:50;;;;;;;43.45;22.23;;;;;;;4.08;100.00;100839.53;4901557;29;20116;-84
2023/01/28 08:50:17;;;;;;;35.20;19.83;;;;;;;3.86;100.00;100843.84;4903167;29;20036;-85
2023/01/28 08:52:43;;;;;;;40.42;21.25;;;;;;;3.90;100.00;100835.66;4920444;29;20389;-86
2023/01/28 08:55:12;;;;;;;41.22;20.40;;;;;;;3.84;100.00;100835.25;4910495;29;20487;-87
2023/01/28 08:57:39;;;;;;;39.95;20.83;;;;;;;3.79;100.00;100832.97;4930690;29;20035;-85
2023/01/28 09:00:06;;;;;;;40.97;20.85;;;;;;;3.98;100.00;100833.28;4922029;29;20463;-87
2023/01/28 09:02:31;;;;;;;44.13;20.67;;;;;;;3.69;100.00;100831.94;4919003;29;20024;-88
2023/01/28 09:05:00;;;;;;;39.17;21.00;;;;;;;3.65;100.00;100836.56;4934028;29;20047;-86
2023/01/28 09:07:25;;;;;;;39.45;20.80;;;;;;;3.67;100.00;100840.88;4949405;29;20090;-88
2023/01/28 09:09:51;;;;;;;39.47;19.33;;;;;;;3.96;100.00;100843.06;4948118;29;20036;-83
2023/01/28 09:12:17;;;;;;;39.22;20.65;;;;;;;3.89;100.00;100838.38;4898859;29;20048;-87
2023/01/28 09:14:42;;;;;;;39.95;19.35;;;;;;;3.85;100.00;100848.25;4950426;29;20058;-89
2023/01/28 09:17:29;;;;;;;37.45;19.45;;;;;;;3.87;100.00;100850.75;4921155;29;20051;-85
2023/01/28 09:20:07;;;;;;;35.25;19.80;;;;;;;3.97;100.00;100851.78;4949234;29;20074;-84
2023/01/28 09:22:33;;;;;;;44.42;21.27;;;;;;;3.88;100.00;100855.06;4952390;29;20043;-85
2023/01/28 09:24:59;;;;;;;51.35;27.08;;;;;;;3.72;100.00;100854.47;4921161;29;20031;-86
2023/01/28 09:27:26;;;;;;;71.93;36.28;;;;;;;3.52;100.00;100856.75;4931900;29;20126;-86
2023/01/28 09:29:52;;;;;;;87.05;44.15;;;;;;;3.62;100.00;100852.53;4915031;29;20044;-85
2023/01/28 09:32:17;;;;;;;82.65;42.35;;;;;;;3.65;100.00;100852.31;4935766;29;20112;-87
2023/01/28 09:34:46;;;;;;;79.82;41.08;;;;;;;3.54;100.00;100854.03;4941512;29;20043;-87
2023/01/28 09:37:11;;;;;;;64.03;31.55;;;;;;;3.58;100.00;100850.22;4928957;29;20067;-85
2023/01/28 09:39:37;;;;;;;50.65;26.15;;;;;;;3.77;100.00;100852.38;4926582;29;20052;-86
2023/01/28 09:42:39;;;;;;;49.65;26.27;;;;;;;3.77;100.00;100861.09;4935959;29;20063;-84
2023/01/28 09:45:27;;;;;;;52.67;28.05;;;;;;;3.80;100.00;100857.41;4928164;29;20478;-84
2023/01/28 09:47:59;;;;;;;60.03;28.08;;;;;;;3.78;100.00;100860.13;4922070;29;20561;-85
2023/01/28 09:50:41;;;;;;;49.53;23.13;;;;;;;3.94;100.00;100862.47;4913903;29;20047;-84
2023/01/28 09:53:20;;;;;;;42.63;21.40;;;;;;;4.19;100.00;100867.59;4917585;29;20131;-86
2023/01/28 09:56:24;;;;;;;42.35;20.65;;;;;;;4.12;100.00;100866.38;4928915;29;20039;-82
2023/01/28 09:58:53;;;;;;;41.83;20.98;;;;;;;4.07;100.00;100863.25;4928886;29;20126;-84
2023/01/28 10:01:37;;;;;;;41.00;20.73;;;;;;;4.05;100.00;100865.13;4919893;29;20035;-87
2023/01/28 10:04:24;;;;;;;53.53;27.30;;;;;;;4.09;100.00;100863.97;4925992;29;20036;-85
2023/01/28 10:06:56;;;;;;;53.30;26.77;;;;;;;4.12;100.00;100869.00;4927735;29;20114;-84
2023/01/28 11:00:53;;;;;;;39.50;19.83;;;;;;;5.56;100.00;100871.03;4923021;29;20315;-90
2023/01/28 11:03:19;;;;;;;36.75;19.80;;;;;;;5.42;100.00;100866.84;4919351;29;20043;-89
2023/01/28 11:05:52;;;;;;;42.60;22.10;;;;;;;5.55;100.00;100862.31;4903363;29;20125;-88
2023/01/28 11:08:19;;;;;;;49.05;20.52;;;;;;;5.63;100.00;100865.16;4915353;29;20401;-89
2023/01/28 11:10:47;;;;;;;42.28;19.50;;;;;;;5.58;100.00;100864.69;4926437;29;20036;-88
2023/01/28 11:13:25;;;;;;;37.80;19.08;;;;;;;5.76;100.00;100866.81;4921733;29;20013;-88
2023/01/28 11:15:52;;;;;;;35.47;18.65;;;;;;;5.72;100.00;100856.53;4932098;28;20051;-88
2023/01/28 11:18:25;;;;;;;36.20;18.35;;;;;;;5.85;100.00;100858.19;4931857;29;20050;-86
2023/01/28 11:20:55;;;;;;;37.83;17.98;;;;;;;6.07;100.00;100852.88;4944236;28;20028;-88
2023/01/28 11:23:54;;;;;;;34.65;17.88;;;;;;;5.87;98.53;100854.50;4942486;28;20048;-88
2023/01/28 11:26:36;;;;;;;35.78;17.77;;;;;;;5.99;98.04;100850.03;4923625;29;20032;-90
2023/01/28 11:29:03;;;;;;;36.65;18.10;;;;;;;5.94;98.46;100844.31;4912296;29;20104;-87
2023/01/28 11:31:38;;;;;;;36.60;18.50;;;;;;;5.97;98.37;100849.31;4939405;29;20028;-87
2023/01/28 11:34:06;;;;;;;34.80;17.25;;;;;;;6.20;98.54;100845.63;4935469;29;20044;-92
2023/01/28 11:36:33;;;;;;;37.28;18.85;;;;;;;6.22;97.47;100839.31;4938174;29;20060;-89
2023/01/28 11:39:28;;;;;;;39.10;19.08;;;;;;;6.11;98.30;100847.25;4940706;29;20545;-92
2023/01/28 11:42:17;;;;;;;36.53;17.38;;;;;;;6.06;96.29;100843.31;4926330;29;20076;-89
2023/01/28 11:44:49;;;;;;;46.90;17.50;;;;;;;6.10;97.18;100826.31;4938747;29;20424;-88
2023/01/28 11:47:34;;;;;;;;;;;;;;;6.18;99.90;100829.16;4920716;29;20070;-90
2023/01/28 11:50:37;;;;;;;38.88;19.83;;;;;;;5.97;98.55;100830.91;4934695;29;19919;-92
2023/01/28 11:53:13;;;;;;;35.83;18.15;;;;;;;5.89;96.34;100822.81;4914109;29;20039;-90
2023/01/28 11:55:52;;;;;;;38.05;18.05;;;;;;;5.87;93.91;100824.72;4912689;29;20051;-91
2023/01/28 11:58:24;;;;;;;35.83;18.33;;;;;;;5.99;96.71;100807.94;4931410;29;20042;-90
2023/01/28 12:01:07;;;;;;;47.33;19.63;;;;;;;6.04;94.40;100803.13;4941455;29;20036;-92
2023/01/28 12:04:08;;;;;;;38.05;17.17;;;;;;;6.30;93.14;100816.78;4942378;29;20036;-91
2023/01/28 12:07:19;;;;;;;37.03;18.70;;;;;;;6.32;97.65;100804.31;4923362;29;20083;-89
2023/01/28 12:09:59;;;;;;;37.85;18.75;;;;;;;6.44;94.03;100809.41;4946934;29;20069;-91
2023/01/28 12:12:53;;;;;;;35.72;17.45;;;;;;;6.64;96.11;100803.28;4929328;29;20040;-91
2023/01/28 12:15:36;;;;;;;33.45;17.40;;;;;;;6.63;94.25;100793.72;4927625;29;20060;-91
2023/01/28 12:18:42;;;;;;;36.85;17.48;;;;;;;6.42;85.97;100795.53;4928757;29;20071;-90
2023/01/28 12:21:29;;;;;;;38.50;19.48;;;;;;;6.21;88.21;100786.78;4927456;29;20048;-91
2023/01/28 12:23:57;;;;;;;37.20;19.02;;;;;;;6.09;90.34;100785.19;4925663;29;20493;-91
2023/01/28 12:26:48;;;;;;;40.38;19.85;;;;;;;6.30;94.59;100786.00;4941264;29;20020;-90
2023/01/28 12:29:46;;;;;;;43.55;18.92;;;;;;;6.44;90.13;100792.75;4932922;29;20095;-89
2023/01/28 12:32:38;;;;;;;34.60;17.67;;;;;;;6.51;93.43;100786.84;4921967;29;20485;-89
2023/01/28 12:35:39;;;;;;;35.15;16.98;;;;;;;6.59;87.32;100779.16;5044599;23;20439;-90
2023/01/28 12:41:09;;;;;;;37.10;17.05;;;;;;;6.32;82.00;100784.09;4945578;29;20058;-89
2023/01/28 12:44:07;;;;;;;35.92;17.83;;;;;;;6.40;83.90;100767.66;4930811;29;20040;-88
2023/01/28 12:46:58;;;;;;;37.20;19.05;;;;;;;6.24;86.66;100773.38;4869064;29;20101;-90
2023/01/28 12:49:36;;;;;;;35.60;17.60;;;;;;;6.30;90.69;100764.97;4869093;23;20053;-90
2023/01/28 12:52:23;;;;;;;36.95;18.48;;;;;;;6.65;92.83;100768.09;4961718;28;20047;-88
2023/01/28 12:57:33;;;;;;;37.63;18.92;;;;;;;6.60;85.88;100767.63;4974051;23;20051;-85
2023/01/28 13:00:24;;;;;;;42.35;18.65;;;;;;;6.50;83.37;100771.19;4948530;29;20105;-87
2023/01/28 13:03:36;;;;;;;39.78;18.77;;;;;;;6.45;87.26;100763.69;4950242;29;20040;-88
2023/01/28 13:06:32;;;;;;;33.53;17.40;;;;;;;6.44;85.46;100758.53;4872019;29;20054;-89
2023/01/28 13:09:12;;;;;;;37.38;18.65;;;;;;;6.37;87.39;100760.00;4869708;29;20053;-88